Time;durP1;ratioP1;P1;durP2;ratioP2;P2;SDS_P1;SDS_P2;PMS_P1;PMS_P2;Temp;Humidity;BMP_temperature;BMP_pressure;BME280_temperature;BME280_humidity;BME280_pressure;Samples;Min_cycle;Max_cycle;Signal;HPM_P1;HPM_P2
2023/09/22 07:29:42;;;;;;;12.98;9.52;;;;;;;;;;6189607;23;20028;-81
2023/09/22 07:32:09;;;;;;;14.00;8.35;;;;;;;;;;6164676;23;20024;-80
2023/09/22 07:34:35;;;;;;;11.70;8.23;;;;;;;;;;6188937;23;20008;-84
2023/09/22 07:37:01;;;;;;;11.40;7.47;;;;;;;;;;6186041;23;20020;-77
2023/09/22 07:39:27;;;;;;;10.55;7.93;;;;;;;;;;6162701;23;20401;-82
2023/09/22 07:41:53;;;;;;;8.82;7.70;;;;;;;;;;6195979;23;20111;-80
2023/09/22 07:44:21;;;;;;;13.35;8.10;;;;;;;;;;6200164;23;20013;-82
2023/09/22 07:46:48;;;;;;;13.48;8.30;;;;;;;;;;6202792;23;20032;-83
2023/09/22 07:49:15;;;;;;;12.38;7.68;;;;;;;;;;6198343;23;20008;-82
2023/09/22 07:51:42;;;;;;;17.55;7.05;;;;;;;;;;6154232;23;19986;-85
2023/09/22 07:54:09;;;;;;;10.50;6.80;;;;;;;;;;6131555;23;20106;-84
2023/09/22 07:56:35;;;;;;;9.13;6.60;;;;;;;;;;6205987;23;20033;-83
2023/09/22 07:59:03;;;;;;;9.38;7.18;;;;;;;;;;6202665;23;20020;-84
2023/09/22 08:01:29;;;;;;;10.25;7.03;;;;;;;;;;6201397;23;20013;-85
2023/09/22 08:03:56;;;;;;;13.82;6.68;;;;;;;;;;6201471;23;20020;-85
2023/09/22 08:06:22;;;;;;;7.85;6.50;;;;;;;;;;6201570;23;20036;-84
2023/09/22 08:08:49;;;;;;;7.28;6.53;;;;;;;;;;6201003;23;20101;-84
2023/09/22 08:11:17;;;;;;;14.23;6.78;;;;;;;;;;6165648;23;20729;-83
2023/09/22 08:13:46;;;;;;;17.35;6.47;;;;;;;;;;6163987;23;20218;-83
2023/09/22 08:16:13;;;;;;;9.38;6.45;;;;;;;;;;6191842;23;20059;-83
2023/09/22 08:18:40;;;;;;;10.02;6.30;;;;;;;;;;6184429;23;20027;-83
2023/09/22 08:21:07;;;;;;;6.72;5.80;;;;;;;;;;6167163;23;20059;-84
2023/09/22 08:23:33;;;;;;;8.38;6.15;;;;;;;;;;6193775;23;20036;-83
2023/09/22 08:26:05;;;;;;;11.20;6.00;;;;;;;;;;6198606;23;20020;-83
2023/09/22 08:28:37;;;;;;;11.68;5.57;;;;;;;;;;6182638;23;20024;-83
2023/09/22 08:31:05;;;;;;;9.70;5.75;;;;;;;;;;6167919;23;20028;-81
2023/09/22 08:33:32;;;;;;;7.45;5.43;;;;;;;;;;6114179;23;20520;-81
2023/09/22 08:35:58;;;;;;;7.70;5.75;;;;;;;;;;6163324;23;20013;-83
2023/09/22 08:38:24;;;;;;;6.20;5.07;;;;;;;;;;6188720;23;20028;-82
2023/09/22 08:40:50;;;;;;;8.13;5.13;;;;;;;;;;6186366;23;20123;-82
2023/09/22 08:43:16;;;;;;;7.00;5.28;;;;;;;;;;6161626;23;20044;-83
2023/09/22 08:45:42;;;;;;;9.30;5.32;;;;;;;;;;6162539;23;20008;-82
2023/09/22 08:48:09;;;;;;;10.27;5.55;;;;;;;;;;6137794;23;20016;-83
2023/09/22 08:50:35;;;;;;;8.45;5.47;;;;;;;;;;6145302;23;20111;-83
2023/09/22 08:53:01;;;;;;;5.47;4.97;;;;;;;;;;6190262;23;20066;-84
2023/09/22 08:55:27;;;;;;;7.13;5.15;;;;;;;;;;6142673;23;20040;-83
2023/09/22 08:57:53;;;;;;;5.97;5.00;;;;;;;;;;6219253;23;20019;-83
2023/09/22 09:00:26;;;;;;;11.75;5.30;;;;;;;;;;6216486;23;20441;-83
2023/09/22 09:02:54;;;;;;;10.65;4.90;;;;;;;;;;6218863;23;20013;-83
2023/09/22 09:05:30;;;;;;;11.18;5.03;;;;;;;;;;6217108;23;20019;-81
2023/09/22 09:08:02;;;;;;;7.65;4.68;;;;;;;;;;6218835;23;20397;-83
2023/09/22 09:10:34;;;;;;;7.45;5.30;;;;;;;;;;6168581;23;20020;-83
2023/09/22 09:13:05;;;;;;;7.72;4.63;;;;;;;;;;6173916;23;20012;-82
2023/09/22 09:15:41;;;;;;;5.40;4.90;;;;;;;;;;6181814;23;20015;-82
2023/09/22 09:18:08;;;;;;;8.75;5.35;;;;;;;;;;6233575;23;20064;-82
2023/09/22 09:20:34;;;;;;;7.20;4.70;;;;;;;;;;6199371;23;20071;-83
2023/09/22 09:23:10;;;;;;;7.90;5.30;;;;;;;;;;6219172;23;20522;-83
2023/09/22 09:25:42;;;;;;;6.38;4.68;;;;;;;;;;6165718;23;20107;-83
2023/09/22 09:28:08;;;;;;;8.27;4.85;;;;;;;;;;6216131;23;20020;-82
2023/09/22 09:30:34;;;;;;;6.38;4.57;;;;;;;;;;6190541;23;20396;-81
2023/09/22 09:33:09;;;;;;;8.77;4.60;;;;;;;;;;6165263;23;20064;-83
2023/09/22 09:35:37;;;;;;;9.45;4.60;;;;;;;;;;6116997;23;20017;-83
2023/09/22 09:38:03;;;;;;;6.28;4.88;;;;;;;;;;6217047;23;20009;-83
2023/09/22 09:40:29;;;;;;;6.45;4.50;;;;;;;;;;6217868;23;20463;-82
2023/09/22 09:42:57;;;;;;;5.53;4.90;;;;;;;;;;6166186;23;20014;-83
2023/09/22 09:45:23;;;;;;;5.15;4.65;;;;;;;;;;6217222;23;20012;-84
2023/09/22 09:47:52;;;;;;;7.93;5.25;;;;;;;;;;6190590;23;20008;-84
2023/09/22 09:50:18;;;;;;;8.75;4.75;;;;;;;;;;6190064;23;20017;-83
2023/09/22 09:52:48;;;;;;;5.93;4.50;;;;;;;;;;6216244;23;20013;-83
2023/09/22 09:55:17;;;;;;;8.95;4.78;;;;;;;;;;6216349;23;20013;-82
2023/09/22 09:57:44;;;;;;;6.28;5.05;;;;;;;;;;6191488;23;20015;-85
2023/09/22 10:00:19;;;;;;;5.93;5.10;;;;;;;;;;6191808;23;20408;-83
2023/09/22 10:02:48;;;;;;;8.30;4.45;;;;;;;;;;6146810;23;20112;-85
2023/09/22 10:05:15;;;;;;;7.55;4.95;;;;;;;;;;6169317;23;20039;-83
2023/09/22 10:07:42;;;;;;;6.15;4.55;;;;;;;;;;6146250;23;20035;-83
2023/09/22 10:10:08;;;;;;;7.18;4.93;;;;;;;;;;6217648;23;20020;-82
2023/09/22 10:12:35;;;;;;;5.68;4.70;;;;;;;;;;6141416;23;20013;-83
2023/09/22 10:15:04;;;;;;;7.13;4.78;;;;;;;;;;6193557;23;20080;-83
2023/09/22 10:17:31;;;;;;;6.40;4.95;;;;;;;;;;6192264;23;20043;-83
2023/09/22 10:19:59;;;;;;;5.43;4.97;;;;;;;;;;6192554;23;20016;-83
2023/09/22 10:22:25;;;;;;;7.78;4.85;;;;;;;;;;6193403;23;20624;-84
2023/09/22 10:25:10;;;;;;;6.00;4.30;;;;;;;;;;6191029;23;20013;-84
2023/09/22 10:27:56;;;;;;;5.55;4.82;;;;;;;;;;6217093;23;20009;-83
2023/09/22 10:30:23;;;;;;;6.03;4.65;;;;;;;;;;6165350;23;20028;-84
2023/09/22 10:32:49;;;;;;;6.90;4.97;;;;;;;;;;6165004;23;20012;-83
2023/09/22 10:35:35;;;;;;;10.30;4.75;;;;;;;;;;6189161;23;20016;-82
2023/09/22 10:38:02;;;;;;;5.85;5.32;;;;;;;;;;6167547;23;20012;-84
2023/09/22 10:40:28;;;;;;;6.38;5.07;;;;;;;;;;6194737;23;20012;-84
2023/09/22 10:42:54;;;;;;;7.40;5.32;;;;;;;;;;6194379;23;20034;-82
2023/09/22 10:45:23;;;;;;;7.82;5.28;;;;;;;;;;6193258;23;20016;-84
2023/09/22 10:47:51;;;;;;;6.72;5.38;;;;;;;;;;6194153;23;20461;-83
2023/09/22 10:50:26;;;;;;;8.40;4.30;;;;;;;;;;6169029;23;20024;-83
2023/09/22 10:52:53;;;;;;;6.70;5.45;;;;;;;;;;6192738;23;20012;-84
2023/09/22 10:55:36;;;;;;;6.05;5.38;;;;;;;;;;6191541;23;20032;-84
2023/09/22 10:58:06;;;;;;;8.80;4.80;;;;;;;;;;6168921;23;20016;-83
2023/09/22 11:00:38;;;;;;;5.63;5.22;;;;;;;;;;6192870;23;20398;-83
2023/09/22 11:03:05;;;;;;;5.75;5.20;;;;;;;;;;6169220;23;20023;-83
2023/09/22 11:05:31;;;;;;;7.10;5.00;;;;;;;;;;6192662;23;20059;-83
2023/09/22 11:07:57;;;;;;;6.00;5.50;;;;;;;;;;6196353;23;20534;-83
2023/09/22 11:10:23;;;;;;;5.25;4.93;;;;;;;;;;6220660;23;20028;-83
2023/09/22 11:12:54;;;;;;;6.60;5.40;;;;;;;;;;6221089;23;20016;-83
2023/09/22 11:15:20;;;;;;;9.60;5.25;;;;;;;;;;6220504;23;20039;-83
2023/09/22 11:17:46;;;;;;;5.75;5.10;;;;;;;;;;6195159;23;20015;-84
2023/09/22 11:20:18;;;;;;;4.93;4.38;;;;;;;;;;6219509;23;20012;-84
2023/09/22 11:22:44;;;;;;;6.50;4.53;;;;;;;;;;6220336;23;20026;-83
2023/09/22 11:25:10;;;;;;;6.07;5.20;;;;;;;;;;6169765;23;20018;-83
2023/09/22 11:27:46;;;;;;;6.10;5.03;;;;;;;;;;6171936;23;20009;-84
2023/09/22 11:30:14;;;;;;;7.20;4.60;;;;;;;;;;6222183;23;20477;-83
2023/09/22 11:32:41;;;;;;;5.05;4.63;;;;;;;;;;6196481;23;20008;-83
2023/09/22 11:35:07;;;;;;;5.45;4.93;;;;;;;;;;6170487;23;20712;-84
2023/09/22 11:37:33;;;;;;;6.22;5.10;;;;;;;;;;6191507;23;20402;-83
2023/09/22 11:39:59;;;;;;;4.97;4.45;;;;;;;;;;6168115;23;20509;-84
2023/09/22 11:42:25;;;;;;;6.07;4.65;;;;;;;;;;6192464;23;20031;-82
2023/09/22 11:44:58;;;;;;;5.10;4.35;;;;;;;;;;6192297;23;20019;-83
2023/09/22 11:47:24;;;;;;;5.57;5.18;;;;;;;;;;6219022;23;20075;-82
2023/09/22 11:49:50;;;;;;;6.10;4.82;;;;;;;;;;6192149;23;20472;-83
2023/09/22 11:52:27;;;;;;;6.45;4.45;;;;;;;;;;6192859;23;20013;-83
2023/09/22 11:54:53;;;;;;;5.20;4.80;;;;;;;;;;6194824;23;20016;-83
2023/09/22 11:57:20;;;;;;;5.30;4.90;;;;;;;;;;6194509;23;20103;-84
2023/09/22 11:59:48;;;;;;;6.75;4.57;;;;;;;;;;6221735;23;20016;-84
2023/09/22 12:02:14;;;;;;;6.43;4.78;;;;;;;;;;6222762;23;20039;-83
2023/09/22 12:04:40;;;;;;;6.18;4.57;;;;;;;;;;6170795;23;20008;-85
2023/09/22 12:07:06;;;;;;;4.85;4.38;;;;;;;;;;6222206;23;20018;-83
2023/09/22 12:09:33;;;;;;;5.82;4.20;;;;;;;;;;6169924;23;20020;-83
2023/09/22 12:11:59;;;;;;;4.40;3.97;;;;;;;;;;6195163;23;20457;-83
2023/09/22 12:14:25;;;;;;;4.63;4.22;;;;;;;;;;6155907;23;20075;-83
2023/09/22 12:16:52;;;;;;;5.72;4.47;;;;;;;;;;6152992;23;20016;-83
2023/09/22 12:19:19;;;;;;;6.85;4.30;;;;;;;;;;6196882;23;20027;-83
2023/09/22 12:21:46;;;;;;;4.95;4.10;;;;;;;;;;6169579;23;20099;-84
2023/09/22 12:24:13;;;;;;;5.40;4.82;;;;;;;;;;6170385;23;20009;-84
2023/09/22 12:26:40;;;;;;;4.55;4.20;;;;;;;;;;6227398;23;20008;-83
2023/09/22 12:29:06;;;;;;;4.55;4.10;;;;;;;;;;6180290;23;20031;-83
2023/09/22 12:31:33;;;;;;;4.18;3.78;;;;;;;;;;6203091;23;20013;-83
2023/09/22 12:34:00;;;;;;;4.68;4.05;;;;;;;;;;6225978;23;20008;-84
2023/09/22 12:36:26;;;;;;;5.22;3.60;;;;;;;;;;6198691;23;20107;-84
2023/09/22 12:38:53;;;;;;;4.28;3.85;;;;;;;;;;6224328;23;20013;-85
2023/09/22 12:41:19;;;;;;;5.40;4.25;;;;;;;;;;6173117;23;20030;-84
2023/09/22 12:43:45;;;;;;;3.83;3.47;;;;;;;;;;6225707;23;20012;-82
2023/09/22 12:46:12;;;;;;;4.55;4.15;;;;;;;;;;6199947;23;20008;-84
2023/09/22 12:48:40;;;;;;;5.38;3.78;;;;;;;;;;6199008;23;20043;-85
2023/09/22 12:51:07;;;;;;;4.15;3.40;;;;;;;;;;6220550;23;20350;-83
2023/09/22 12:53:33;;;;;;;3.75;3.45;;;;;;;;;;6219537;23;20008;-84
2023/09/22 12:55:59;;;;;;;4.53;3.70;;;;;;;;;;6192917;23;20012;-82
2023/09/22 12:58:28;;;;;;;3.60;3.30;;;;;;;;;;6194909;23;20012;-83
2023/09/22 13:00:55;;;;;;;4.57;3.50;;;;;;;;;;6193879;23;20013;-83
2023/09/22 13:03:22;;;;;;;7.35;3.47;;;;;;;;;;6193634;23;20012;-83
2023/09/22 13:05:48;;;;;;;3.40;3.20;;;;;;;;;;6172148;23;20016;-84
2023/09/22 13:08:15;;;;;;;9.00;3.45;;;;;;;;;;6224443;23;20009;-84
2023/09/22 13:10:41;;;;;;;4.50;3.28;;;;;;;;;;6195819;23;20149;-84
2023/09/22 13:13:08;;;;;;;7.70;3.20;;;;;;;;;;6223385;23;20016;-84
2023/09/22 13:15:34;;;;;;;4.18;3.45;;;;;;;;;;6195014;23;20012;-84
2023/09/22 13:18:01;;;;;;;5.60;3.92;;;;;;;;;;6192893;23;20036;-83
2023/09/22 13:20:27;;;;;;;3.28;3.08;;;;;;;;;;6219306;23;20090;-83
2023/09/22 13:22:54;;;;;;;3.45;3.25;;;;;;;;;;6218328;23;20445;-83
2023/09/22 13:25:20;;;;;;;3.80;3.50;;;;;;;;;;6190611;23;20411;-85
2023/09/22 13:27:46;;;;;;;5.05;3.05;;;;;;;;;;6167618;23;20135;-82
2023/09/22 13:30:12;;;;;;;5.00;3.42;;;;;;;;;;6192913;23;20020;-83
2023/09/22 13:32:38;;;;;;;6.18;3.50;;;;;;;;;;6195128;23;20020;-82
2023/09/22 13:35:04;;;;;;;4.80;3.10;;;;;;;;;;6192893;23;20099;-82
2023/09/22 13:37:30;;;;;;;6.07;3.30;;;;;;;;;;6192547;23;20066;-83
2023/09/22 13:39:56;;;;;;;4.40;2.95;;;;;;;;;;6190643;23;20103;-83
2023/09/22 13:42:23;;;;;;;4.05;3.00;;;;;;;;;;6190017;23;20016;-83
2023/09/22 13:44:49;;;;;;;4.53;3.35;;;;;;;;;;6190599;23;20733;-84
2023/09/22 13:47:16;;;;;;;7.22;3.22;;;;;;;;;;6167032;23;20012;-81
2023/09/22 13:49:42;;;;;;;7.57;3.60;;;;;;;;;;6220415;23;20032;-83
2023/09/22 13:52:08;;;;;;;4.78;4.18;;;;;;;;;;6195914;23;20055;-83
2023/09/22 13:54:34;;;;;;;5.72;3.60;;;;;;;;;;6144826;23;20008;-83
2023/09/22 13:57:00;;;;;;;4.75;3.42;;;;;;;;;;6169698;23;20479;-82
2023/09/22 13:59:27;;;;;;;4.88;3.50;;;;;;;;;;6195603;23;20036;-83
2023/09/22 14:01:53;;;;;;;5.28;4.80;;;;;;;;;;6224147;23;20554;-83
2023/09/22 14:04:19;;;;;;;6.68;3.47;;;;;;;;;;6197937;23;20017;-83
2023/09/22 14:06:45;;;;;;;6.65;3.33;;;;;;;;;;6198023;23;20009;-83
2023/09/22 14:09:13;;;;;;;5.40;3.55;;;;;;;;;;6198928;23;20068;-84
2023/09/22 14:11:39;;;;;;;3.65;3.35;;;;;;;;;;6172470;23;20020;-82
2023/09/22 14:14:05;;;;;;;5.18;3.50;;;;;;;;;;6223977;23;20030;-83
2023/09/22 14:16:32;;;;;;;5.53;3.90;;;;;;;;;;6220759;23;20408;-83
2023/09/22 14:18:59;;;;;;;6.57;3.50;;;;;;;;;;6193798;23;20023;-83
2023/09/22 14:21:25;;;;;;;6.57;3.75;;;;;;;;;;6169545;23;20019;-84
2023/09/22 14:23:52;;;;;;;8.85;3.95;;;;;;;;;;6221111;23;20017;-83
2023/09/22 14:26:18;;;;;;;6.90;3.55;;;;;;;;;;6219800;23;20028;-83
2023/09/22 14:28:44;;;;;;;9.30;4.80;;;;;;;;;;6190129;23;20365;-83
2023/09/22 14:31:17;;;;;;;5.43;3.60;;;;;;;;;;6139977;23;20457;-83
2023/09/22 14:33:44;;;;;;;4.20;3.40;;;;;;;;;;6165098;23;20062;-82
2023/09/22 14:36:10;;;;;;;9.05;3.70;;;;;;;;;;6189286;23;20019;-82
2023/09/22 14:38:36;;;;;;;13.57;3.40;;;;;;;;;;6188665;23;20016;-82
2023/09/22 14:41:05;;;;;;;9.95;3.40;;;;;;;;;;6187656;23;20013;-82
2023/09/22 14:43:31;;;;;;;9.93;3.50;;;;;;;;;;6139823;23;20015;-81
2023/09/22 14:45:57;;;;;;;7.55;3.80;;;;;;;;;;6217890;23;20044;-82
2023/09/22 14:48:23;;;;;;;10.98;3.47;;;;;;;;;;6219193;23;20465;-82
2023/09/22 14:50:57;;;;;;;8.02;3.70;;;;;;;;;;6191847;23;20020;-83
2023/09/22 14:53:23;;;;;;;7.72;3.97;;;;;;;;;;6215767;23;20392;-81
2023/09/22 14:55:49;;;;;;;7.32;4.10;;;;;;;;;;6214753;23;20023;-81
2023/09/22 14:58:15;;;;;;;8.82;3.40;;;;;;;;;;6188017;23;20008;-80
2023/09/22 15:00:42;;;;;;;4.45;3.47;;;;;;;;;;6187746;23;20016;-82
2023/09/22 15:03:09;;;;;;;8.55;3.42;;;;;;;;;;6215216;23;20036;-81
2023/09/22 15:05:35;;;;;;;9.73;3.40;;;;;;;;;;6215366;23;20019;-82
2023/09/22 15:08:01;;;;;;;8.70;3.30;;;;;;;;;;6215872;23;20009;-81
2023/09/22 15:10:27;;;;;;;4.88;3.28;;;;;;;;;;6215860;23;20047;-81
2023/09/22 15:12:56;;;;;;;10.20;3.60;;;;;;;;;;6170677;23;20009;-82
2023/09/22 15:15:22;;;;;;;6.45;4.93;;;;;;;;;;6200925;23;20013;-81
2023/09/22 15:17:48;;;;;;;12.02;6.68;;;;;;;;;;6223789;23;20047;-81
2023/09/22 15:20:14;;;;;;;12.68;5.55;;;;;;;;;;6216206;23;20036;-81
2023/09/22 15:22:43;;;;;;;10.25;4.22;;;;;;;;;;6215937;23;20516;-81
2023/09/22 15:25:10;;;;;;;8.65;4.45;;;;;;;;;;6188789;23;20107;-81
2023/09/22 15:27:36;;;;;;;8.23;4.88;;;;;;;;;;6188363;23;20027;-82
2023/09/22 15:30:04;;;;;;;8.57;4.65;;;;;;;;;;6188916;23;20091;-81
2023/09/22 15:32:30;;;;;;;11.15;4.22;;;;;;;;;;6163537;23;20013;-81
2023/09/22 15:34:56;;;;;;;5.45;4.20;;;;;;;;;;6214774;23;20012;-80
2023/09/22 15:37:22;;;;;;;5.13;4.05;;;;;;;;;;6162611;23;20008;-80
2023/09/22 15:39:48;;;;;;;6.90;3.90;;;;;;;;;;6214074;23;20082;-80
2023/09/22 15:42:15;;;;;;;9.88;4.47;;;;;;;;;;6162479;23;20012;-81
2023/09/22 15:44:41;;;;;;;8.05;4.38;;;;;;;;;;6187543;23;20070;-79
2023/09/22 15:47:11;;;;;;;8.15;4.60;;;;;;;;;;6187925;23;20115;-80
2023/09/22 15:49:37;;;;;;;12.17;4.10;;;;;;;;;;6188844;23;20012;-80
2023/09/22 15:52:03;;;;;;;5.55;4.18;;;;;;;;;;6215579;23;20240;-81
2023/09/22 15:54:30;;;;;;;6.82;4.22;;;;;;;;;;6213372;23;20078;-79
2023/09/22 15:56:57;;;;;;;11.73;5.03;;;;;;;;;;6213998;23;20071;-80
2023/09/22 15:59:23;;;;;;;8.43;4.22;;;;;;;;;;6187438;23;20040;-81
2023/09/22 16:01:48;;;;;;;9.50;4.68;;;;;;;;;;6213666;23;20357;-82
2023/09/22 16:04:17;;;;;;;7.80;4.50;;;;;;;;;;6187020;23;20008;-81
2023/09/22 16:06:43;;;;;;;6.18;4.18;;;;;;;;;;6186161;23;20074;-81
2023/09/22 16:09:10;;;;;;;11.45;4.50;;;;;;;;;;6186945;23;20051;-82
2023/09/22 16:11:36;;;;;;;8.70;5.18;;;;;;;;;;6213078;23;20023;-79
2023/09/22 16:14:02;;;;;;;8.70;5.50;;;;;;;;;;6186004;23;20445;-81
2023/09/22 16:16:29;;;;;;;14.45;6.07;;;;;;;;;;6187510;23;20353;-81
2023/09/22 16:18:55;;;;;;;15.20;6.40;;;;;;;;;;6162594;23;20103;-81
2023/09/22 16:21:21;;;;;;;12.02;6.47;;;;;;;;;;6186700;23;20031;-81
2023/09/22 16:23:49;;;;;;;9.88;4.97;;;;;;;;;;6161278;23;20066;-80
2023/09/22 16:26:17;;;;;;;13.35;5.40;;;;;;;;;;6162526;23;20051;-80
2023/09/22 16:28:44;;;;;;;7.82;5.88;;;;;;;;;;6213296;23;20532;-80
2023/09/22 16:31:10;;;;;;;11.63;5.00;;;;;;;;;;6187353;23;20472;-80
2023/09/22 16:33:36;;;;;;;8.80;4.63;;;;;;;;;;6187713;23;20023;-80
2023/09/22 16:36:03;;;;;;;7.20;5.55;;;;;;;;;;6187623;23;20334;-80
2023/09/22 16:38:32;;;;;;;10.30;6.22;;;;;;;;;;6213519;23;20059;-81
2023/09/22 16:40:58;;;;;;;13.32;5.18;;;;;;;;;;6161806;23;20108;-79
2023/09/22 16:43:24;;;;;;;11.52;5.18;;;;;;;;;;6213522;23;20452;-80
2023/09/22 16:45:50;;;;;;;8.50;5.30;;;;;;;;;;6162803;23;20013;-82
2023/09/22 16:48:16;;;;;;;15.73;5.97;;;;;;;;;;6214346;23;20095;-81
2023/09/22 16:50:50;;;;;;;6.03;5.40;;;;;;;;;;6213378;23;20013;-81
2023/09/22 16:53:17;;;;;;;6.90;5.57;;;;;;;;;;6215235;23;20017;-80
2023/09/22 16:55:43;;;;;;;8.52;5.78;;;;;;;;;;6188512;23;20100;-80
2023/09/22 16:58:09;;;;;;;10.18;5.10;;;;;;;;;;6187467;23;20016;-81
2023/09/22 17:00:35;;;;;;;14.57;6.18;;;;;;;;;;6213877;23;20468;-81
2023/09/22 17:03:02;;;;;;;9.77;5.07;;;;;;;;;;6185228;23;20139;-81
2023/09/22 17:05:28;;;;;;;9.15;5.18;;;;;;;;;;6184936;23;20016;-81
2023/09/22 17:07:54;;;;;;;10.23;4.95;;;;;;;;;;6161963;23;20016;-81
2023/09/22 17:10:20;;;;;;;10.80;5.07;;;;;;;;;;6213685;23;20107;-81
2023/09/22 17:12:47;;;;;;;7.47;5.20;;;;;;;;;;6162362;23;20083;-81
2023/09/22 17:15:13;;;;;;;7.22;4.45;;;;;;;;;;6213384;23;20012;-81
2023/09/22 17:17:39;;;;;;;8.52;4.60;;;;;;;;;;6161901;23;20020;-81
2023/09/22 17:20:06;;;;;;;10.45;5.75;;;;;;;;;;6186555;23;20077;-81
2023/09/22 17:22:32;;;;;;;10.68;5.50;;;;;;;;;;6186344;23;20012;-81
2023/09/22 17:24:58;;;;;;;9.55;5.22;;;;;;;;;;6213652;23;20095;-81
2023/09/22 17:27:24;;;;;;;9.05;4.97;;;;;;;;;;6187180;23;20032;-81
2023/09/22 17:29:50;;;;;;;14.25;5.05;;;;;;;;;;6161724;23;20040;-80
2023/09/22 17:32:16;;;;;;;7.22;5.35;;;;;;;;;;6186656;23;20012;-80
2023/09/22 17:34:42;;;;;;;11.18;5.10;;;;;;;;;;6185984;23;20035;-80
2023/09/22 17:37:09;;;;;;;10.60;6.15;;;;;;;;;;6186974;23;20038;-81
2023/09/22 17:39:36;;;;;;;10.48;6.32;;;;;;;;;;6186183;23;20454;-80
2023/09/22 17:42:03;;;;;;;10.00;6.32;;;;;;;;;;6186671;23;20017;-81
2023/09/22 17:44:29;;;;;;;7.32;6.03;;;;;;;;;;6186875;23;20012;-79
2023/09/22 17:46:56;;;;;;;9.35;4.95;;;;;;;;;;6213407;23;20032;-80
2023/09/22 17:49:22;;;;;;;9.93;5.47;;;;;;;;;;6188168;23;20398;-80
2023/09/22 17:51:49;;;;;;;6.07;4.60;;;;;;;;;;6186616;23;20024;-80
2023/09/22 17:54:17;;;;;;;14.07;5.40;;;;;;;;;;6213725;23;20019;-81
2023/09/22 17:56:44;;;;;;;5.40;4.88;;;;;;;;;;6164970;23;20021;-80
2023/09/22 17:59:10;;;;;;;5.45;5.05;;;;;;;;;;6213348;23;20012;-81
2023/09/22 18:01:36;;;;;;;5.65;4.82;;;;;;;;;;6186151;23;20016;-79
2023/09/22 18:04:02;;;;;;;9.48;4.93;;;;;;;;;;6187539;23;20054;-80
2023/09/22 18:06:29;;;;;;;8.98;5.18;;;;;;;;;;6214823;23;20019;-80
2023/09/22 18:08:55;;;;;;;8.55;4.53;;;;;;;;;;6187457;23;20008;-81
2023/09/22 18:11:21;;;;;;;7.38;5.22;;;;;;;;;;6214129;23;20016;-80
2023/09/22 18:13:47;;;;;;;10.57;4.82;;;;;;;;;;6218442;23;20012;-80
2023/09/22 18:16:14;;;;;;;9.63;5.80;;;;;;;;;;6224725;23;20015;-79
2023/09/22 18:18:40;;;;;;;7.85;5.00;;;;;;;;;;6199850;23;20016;-79
2023/09/22 18:21:07;;;;;;;7.22;5.43;;;;;;;;;;6190528;23;20025;-79
2023/09/22 18:23:33;;;;;;;16.50;5.25;;;;;;;;;;6164442;23;20039;-79
2023/09/22 18:26:05;;;;;;;14.20;5.00;;;;;;;;;;6188858;23;20032;-79
2023/09/22 18:28:32;;;;;;;7.90;5.72;;;;;;;;;;6187506;23;20485;-79
2023/09/22 18:30:59;;;;;;;10.50;5.53;;;;;;;;;;6214468;23;20024;-78
2023/09/22 18:33:25;;;;;;;6.40;5.10;;;;;;;;;;6214262;23;20024;-79
2023/09/22 18:35:51;;;;;;;10.40;5.53;;;;;;;;;;6213982;23;20510;-79
2023/09/22 18:38:17;;;;;;;11.80;5.60;;;;;;;;;;6187835;23;20493;-78
2023/09/22 18:40:47;;;;;;;8.23;4.85;;;;;;;;;;6186913;23;20024;-79
2023/09/22 18:43:14;;;;;;;6.72;6.03;;;;;;;;;;6188329;23;20013;-79
2023/09/22 18:45:40;;;;;;;10.82;5.60;;;;;;;;;;6186919;23;20413;-78
2023/09/22 18:48:07;;;;;;;10.57;6.15;;;;;;;;;;6187752;23;20062;-79
2023/09/22 18:50:33;;;;;;;8.15;5.13;;;;;;;;;;6162377;23;20017;-79
2023/09/22 18:52:59;;;;;;;11.10;5.38;;;;;;;;;;6214696;23;20077;-79
2023/09/22 18:55:28;;;;;;;7.72;6.15;;;;;;;;;;6189146;23;20357;-79
2023/09/22 18:57:54;;;;;;;6.70;4.95;;;;;;;;;;6163555;23;20012;-81
2023/09/22 19:00:22;;;;;;;7.75;4.47;;;;;;;;;;6164910;23;20112;-79
2023/09/22 19:02:49;;;;;;;5.80;4.20;;;;;;;;;;6214838;23;20018;-80
2023/09/22 19:05:15;;;;;;;8.80;4.78;;;;;;;;;;6187573;23;20017;-79
2023/09/22 19:07:44;;;;;;;6.78;4.68;;;;;;;;;;6187677;23;20096;-79
2023/09/22 19:10:11;;;;;;;4.82;4.43;;;;;;;;;;6188294;23;20342;-79
2023/09/22 19:12:37;;;;;;;7.15;5.00;;;;;;;;;;6186317;23;20016;-77
2023/09/22 19:15:04;;;;;;;4.97;4.40;;;;;;;;;;6163182;23;20028;-79
2023/09/22 19:17:31;;;;;;;4.72;4.35;;;;;;;;;;6187984;23;20012;-78
2023/09/22 19:19:59;;;;;;;5.32;4.68;;;;;;;;;;6185044;23;20470;-78
2023/09/22 19:22:26;;;;;;;12.77;4.50;;;;;;;;;;6187028;23;20020;-80
2023/09/22 19:24:53;;;;;;;5.95;4.63;;;;;;;;;;6184403;23;20016;-81
2023/09/22 19:27:19;;;;;;;4.50;3.83;;;;;;;;;;6211174;23;20634;-76
2023/09/22 19:29:45;;;;;;;5.97;3.90;;;;;;;;;;6211849;23;20020;-77
2023/09/22 19:32:12;;;;;;;4.32;3.92;;;;;;;;;;6212857;23;20017;-76
2023/09/22 19:34:38;;;;;;;7.97;3.85;;;;;;;;;;6184879;23;20027;-76
2023/09/22 19:37:05;;;;;;;4.47;4.07;;;;;;;;;;6213136;23;20023;-77
2023/09/22 19:39:31;;;;;;;7.93;4.18;;;;;;;;;;6211704;23;20012;-77
2023/09/22 19:41:57;;;;;;;5.75;4.05;;;;;;;;;;6185082;23;20511;-77
2023/09/22 19:44:24;;;;;;;4.65;4.25;;;;;;;;;;6160871;23;20039;-77
2023/09/22 19:46:49;;;;;;;4.18;3.88;;;;;;;;;;6211201;23;20043;-79
2023/09/22 19:49:16;;;;;;;3.97;3.67;;;;;;;;;;6183911;23;20015;-80
2023/09/22 19:51:42;;;;;;;7.32;3.72;;;;;;;;;;6211879;23;20013;-79
2023/09/22 19:54:08;;;;;;;8.10;4.68;;;;;;;;;;6185650;23;20024;-79
2023/09/22 19:56:34;;;;;;;6.45;4.32;;;;;;;;;;6211608;23;20349;-79
2023/09/22 19:59:01;;;;;;;7.18;3.80;;;;;;;;;;6185633;23;20059;-79
2023/09/22 20:01:27;;;;;;;4.40;4.10;;;;;;;;;;6161109;23;20052;-79
2023/09/22 20:03:54;;;;;;;4.65;4.32;;;;;;;;;;6186821;23;20469;-78
2023/09/22 20:06:20;;;;;;;7.90;4.30;;;;;;;;;;6184940;23;20044;-79
2023/09/22 20:08:47;;;;;;;4.22;3.85;;;;;;;;;;6212326;23;20104;-80
2023/09/22 20:11:13;;;;;;;6.38;4.50;;;;;;;;;;6186680;23;20396;-82
2023/09/22 20:13:39;;;;;;;7.97;4.50;;;;;;;;;;6217927;23;20016;-79
2023/09/22 20:16:08;;;;;;;12.15;4.68;;;;;;;;;;6193378;23;20009;-80
2023/09/22 20:18:34;;;;;;;9.45;4.65;;;;;;;;;;6195096;23;20107;-86
2023/09/22 20:21:08;;;;;;;6.57;4.40;;;;;;;;;;6226296;23;20035;-80
2023/09/22 20:23:34;;;;;;;6.97;5.22;;;;;;;;;;6212580;23;20012;-78
2023/09/22 20:26:00;;;;;;;8.07;5.30;;;;;;;;;;6160045;23;20016;-77
2023/09/22 20:28:26;;;;;;;10.63;5.43;;;;;;;;;;6160684;23;20024;-78
2023/09/22 20:31:02;;;;;;;7.80;5.32;;;;;;;;;;6185431;23;20023;-77
2023/09/22 20:33:29;;;;;;;7.80;4.65;;;;;;;;;;6212467;23;20016;-79
2023/09/22 20:35:57;;;;;;;11.02;5.88;;;;;;;;;;6211190;23;20095;-78
2023/09/22 20:38:25;;;;;;;12.38;5.40;;;;;;;;;;6163798;23;20036;-81
2023/09/22 20:40:52;;;;;;;6.28;5.68;;;;;;;;;;6183870;23;20405;-78
2023/09/22 20:43:20;;;;;;;11.57;6.00;;;;;;;;;;6211770;23;20063;-78
2023/09/22 20:45:47;;;;;;;14.65;5.93;;;;;;;;;;6211450;23;20155;-78
2023/09/22 20:48:13;;;;;;;9.60;5.72;;;;;;;;;;6161319;23;20083;-77
2023/09/22 20:50:42;;;;;;;6.47;5.47;;;;;;;;;;6212059;23;20020;-77
2023/09/22 20:53:10;;;;;;;10.27;5.90;;;;;;;;;;6159969;23;20100;-78
2023/09/22 20:55:39;;;;;;;12.35;6.43;;;;;;;;;;6160992;23;20012;-79
2023/09/22 20:58:06;;;;;;;11.18;6.35;;;;;;;;;;6211844;23;20020;-79
2023/09/22 21:00:33;;;;;;;12.88;5.90;;;;;;;;;;6160453;23;20039;-78
2023/09/22 21:03:03;;;;;;;6.03;5.43;;;;;;;;;;6211755;23;20043;-78
2023/09/22 21:05:34;;;;;;;6.72;5.68;;;;;;;;;;6162228;23;20461;-78
2023/09/22 21:08:01;;;;;;;11.68;5.43;;;;;;;;;;6211544;23;20005;-78
2023/09/22 21:10:30;;;;;;;15.18;6.03;;;;;;;;;;6212975;23;20381;-78
2023/09/22 21:12:56;;;;;;;8.77;5.97;;;;;;;;;;6213191;23;20044;-78
2023/09/22 21:15:22;;;;;;;8.30;5.50;;;;;;;;;;6213564;23;20039;-78
2023/09/22 21:17:48;;;;;;;8.10;5.00;;;;;;;;;;6187209;23;20028;-79
2023/09/22 21:20:14;;;;;;;7.38;5.60;;;;;;;;;;6216122;23;20055;-79
2023/09/22 21:22:40;;;;;;;12.63;5.80;;;;;;;;;;6169118;23;20031;-79
2023/09/22 21:25:08;;;;;;;12.80;6.20;;;;;;;;;;6197797;23;20012;-78
2023/09/22 21:27:35;;;;;;;6.53;5.50;;;;;;;;;;6192318;23;20015;-79
2023/09/22 21:30:01;;;;;;;8.60;6.07;;;;;;;;;;6212802;23;20054;-77
2023/09/22 21:32:30;;;;;;;6.60;6.00;;;;;;;;;;6138322;23;20401;-77
2023/09/22 21:34:56;;;;;;;9.95;5.90;;;;;;;;;;6212063;23;20017;-77
2023/09/22 21:37:22;;;;;;;11.13;5.65;;;;;;;;;;6212629;23;20013;-78
2023/09/22 21:39:49;;;;;;;9.10;5.68;;;;;;;;;;6185797;23;20099;-79
2023/09/22 21:42:15;;;;;;;7.72;5.35;;;;;;;;;;6212477;23;20393;-78
2023/09/22 21:44:45;;;;;;;6.97;5.35;;;;;;;;;;6211670;23;20009;-78
2023/09/22 21:47:11;;;;;;;6.30;5.80;;;;;;;;;;6137214;23;20008;-77
2023/09/22 21:49:37;;;;;;;8.75;5.78;;;;;;;;;;6161110;23;20009;-77
2023/09/22 21:52:03;;;;;;;9.00;5.47;;;;;;;;;;6160328;23;20008;-78
2023/09/22 21:54:29;;;;;;;9.10;5.85;;;;;;;;;;6185821;23;20479;-78
2023/09/22 21:56:55;;;;;;;11.02;5.60;;;;;;;;;;6211984;23;20016;-78
2023/09/22 21:59:21;;;;;;;7.85;6.60;;;;;;;;;;6136365;23;20017;-78
2023/09/22 22:01:47;;;;;;;10.00;6.30;;;;;;;;;;6185787;23;20020;-78
2023/09/22 22:04:13;;;;;;;8.55;5.72;;;;;;;;;;6212557;23;20004;-77
2023/09/22 22:06:43;;;;;;;10.65;6.10;;;;;;;;;;6185532;23;20013;-78
2023/09/22 22:09:10;;;;;;;7.97;5.03;;;;;;;;;;6212264;23;20016;-79